createdAt,value
2018-12-06T00:00:48.412Z,15.33
2018-12-06T00:05:52.487Z,11.30
2018-12-06T00:10:57.012Z,11.57
2018-12-06T00:16:01.094Z,21.07
2018-12-06T00:21:06.099Z,15.20
2018-12-06T00:26:10.867Z,15.70
2018-12-06T00:31:14.972Z,15.80
2018-12-06T00:36:19.768Z,15.40
2018-12-06T00:41:24.322Z,15.00
2018-12-06T00:46:29.408Z,18.50
2018-12-06T00:51:34.533Z,14.60
2018-12-06T00:56:39.408Z,15.60
2018-12-06T01:01:43.894Z,13.70
2018-12-06T01:06:48.736Z,17.00
2018-12-06T01:11:54.236Z,16.23
2018-12-06T01:23:16.373Z,12.50
2018-12-06T01:28:21.114Z,17.23
2018-12-06T01:33:25.198Z,15.70
2018-12-06T01:38:29.872Z,16.63
2018-12-06T01:43:33.972Z,11.60
2018-12-06T01:48:38.345Z,19.40
2018-12-06T01:53:42.862Z,14.93
2018-12-06T01:58:47.776Z,13.60
2018-12-06T02:03:51.860Z,14.10
2018-12-06T02:08:56.714Z,17.63
2018-12-06T02:14:01.595Z,17.10
2018-12-06T02:19:06.364Z,13.80
2018-12-06T02:55:38.233Z,15.03
2018-12-06T03:00:43.266Z,15.23
2018-12-06T03:05:47.838Z,15.50
2018-12-06T03:10:52.393Z,10.57
2018-12-06T03:15:56.921Z,14.60
2018-12-06T03:21:01.411Z,13.60
2018-12-06T03:26:06.663Z,17.73
2018-12-06T03:31:11.056Z,10.80
2018-12-06T03:36:15.500Z,12.80
2018-12-06T03:41:20.292Z,14.73
2018-12-06T03:46:24.860Z,12.70
2018-12-06T03:51:28.993Z,16.37
2018-12-06T04:03:09.572Z,10.97
2018-12-06T04:08:14.552Z,14.90
2018-12-06T04:13:19.174Z,10.77
2018-12-06T04:18:23.468Z,14.40
2018-12-06T04:23:27.966Z,9.57
2018-12-06T04:28:32.903Z,13.00
2018-12-06T04:33:37.460Z,10.50
2018-12-06T04:38:41.605Z,11.80
2018-12-06T04:43:45.755Z,8.53
2018-12-06T04:48:50.619Z,11.93
2018-12-06T04:53:54.726Z,12.17
2018-12-06T04:58:58.860Z,11.20
2018-12-06T05:10:37.638Z,14.47
2018-12-06T05:15:42.160Z,12.90
2018-12-06T05:20:46.267Z,11.90
2018-12-06T05:25:51.271Z,10.10
2018-12-06T05:30:56.247Z,9.43
2018-12-06T05:36:00.679Z,15.70
2018-12-06T05:41:05.423Z,9.80
2018-12-06T05:46:09.803Z,10.40
2018-12-06T05:51:14.775Z,10.00
2018-12-06T05:56:19.630Z,9.40
2018-12-06T06:01:24.466Z,12.80
2018-12-06T06:06:28.921Z,12.53
2018-12-06T06:11:33.837Z,9.40
2018-12-06T06:16:37.930Z,10.27
2018-12-06T06:21:41.991Z,10.47
2018-12-06T06:26:46.888Z,9.20
2018-12-06T06:31:51.365Z,12.77
2018-12-06T06:36:56.782Z,11.47
2018-12-06T06:42:01.641Z,11.20
2018-12-06T06:47:06.141Z,12.33
2018-12-06T06:52:10.931Z,10.27
2018-12-06T06:57:15.756Z,13.27
2018-12-06T07:02:20.951Z,14.45
2018-12-06T07:07:25.448Z,12.07
2018-12-06T07:12:37.331Z,12.03
2018-12-06T07:17:42.690Z,9.90
2018-12-06T07:22:46.816Z,10.33
2018-12-06T07:27:51.338Z,8.67
2018-12-06T07:32:55.751Z,14.13
2018-12-06T07:38:00.540Z,8.53
2018-12-06T07:43:05.587Z,9.83
2018-12-06T07:48:11.160Z,9.80
2018-12-06T07:53:17.191Z,6.40
2018-12-06T07:58:22.470Z,6.90
2018-12-06T08:03:26.608Z,10.57
2018-12-06T08:08:30.764Z,12.03
2018-12-06T08:14:01.800Z,10.40
2018-12-06T08:19:06.007Z,9.53
2018-12-06T08:24:10.353Z,7.90
2018-12-06T08:29:15.329Z,9.98
2018-12-06T08:34:26.615Z,8.13
2018-12-06T08:39:31.047Z,5.73
2018-12-06T08:44:35.319Z,8.57
2018-12-06T08:49:40.963Z,8.67
2018-12-06T08:54:45.105Z,10.47
2018-12-06T08:59:49.602Z,7.13
2018-12-06T09:04:54.533Z,10.47
2018-12-06T09:09:59.044Z,8.90
2018-12-06T09:40:01.976Z,10.17
2018-12-06T09:45:08.884Z,9.30
2018-12-06T09:50:13.473Z,10.27
2018-12-06T09:55:18.819Z,11.50
2018-12-06T10:00:23.375Z,11.17
2018-12-06T10:05:27.555Z,16.13
2018-12-06T10:10:32.422Z,8.77
2018-12-06T10:15:37.714Z,7.97
2018-12-06T10:20:42.485Z,10.10
2018-12-06T10:25:50.278Z,7.63
2018-12-06T10:30:59.468Z,8.60
2018-12-06T10:36:05.110Z,8.73
2018-12-06T10:41:09.610Z,10.47
2018-12-06T10:46:14.556Z,8.13
2018-12-06T10:51:30.371Z,11.35
2018-12-06T10:56:36.432Z,9.00
2018-12-06T11:01:46.620Z,9.83
2018-12-06T11:06:51.523Z,9.47
2018-12-06T11:11:56.360Z,11.93
2018-12-06T11:17:00.463Z,8.93
2018-12-06T11:22:11.473Z,8.93
2018-12-06T11:27:16.431Z,7.97
2018-12-06T11:32:20.926Z,8.63
2018-12-06T11:37:25.429Z,8.03
2018-12-06T11:42:34.899Z,8.87
2018-12-06T11:47:39.377Z,9.53
2018-12-06T11:52:43.864Z,7.50
2018-12-06T11:57:48.333Z,13.80
2018-12-06T12:02:53.126Z,10.37
2018-12-06T12:07:57.208Z,8.90
2018-12-06T12:13:01.943Z,11.30
2018-12-06T12:18:07.684Z,9.77
2018-12-06T12:23:12.718Z,10.95
2018-12-06T12:28:17.203Z,8.03
2018-12-06T12:33:21.996Z,9.10
2018-12-06T12:38:26.836Z,10.97
2018-12-06T13:07:13.210Z,10.57
2018-12-06T13:12:20.730Z,11.08
2018-12-06T13:17:24.890Z,13.40
2018-12-06T13:22:29.355Z,7.57
2018-12-06T13:28:07.612Z,11.53
2018-12-06T13:33:12.090Z,9.77
2018-12-06T13:38:19.624Z,8.23
2018-12-06T13:43:24.465Z,11.50
2018-12-06T13:48:29.388Z,7.50
2018-12-06T13:53:33.539Z,9.47
2018-12-06T13:58:38.027Z,13.10
2018-12-06T14:03:42.161Z,7.97
2018-12-06T14:08:46.944Z,10.83
2018-12-06T14:13:51.875Z,12.57
2018-12-06T14:18:56.023Z,9.73
2018-12-06T14:24:01.575Z,15.60
2018-12-06T14:29:07.371Z,9.80
2018-12-06T14:34:12.271Z,13.72
2018-12-06T14:39:17.200Z,10.53
2018-12-06T14:44:22.003Z,12.70
2018-12-06T14:49:26.117Z,12.53
2018-12-06T14:54:30.969Z,13.40
2018-12-06T14:59:35.891Z,9.93
2018-12-06T15:04:45.406Z,11.17
2018-12-06T15:09:49.956Z,11.37
2018-12-06T15:14:58.024Z,9.50
2018-12-06T15:20:02.581Z,16.10
2018-12-06T15:25:42.065Z,11.67
2018-12-06T15:30:47.306Z,11.27
2018-12-06T15:35:52.239Z,14.53
2018-12-06T15:40:57.419Z,16.87
2018-12-06T15:46:02.327Z,15.03
2018-12-06T15:51:07.654Z,12.73
2018-12-06T15:56:13.492Z,14.33
2018-12-06T16:01:18.293Z,14.58
2018-12-06T16:06:23.432Z,19.93
2018-12-06T16:11:27.575Z,15.40
2018-12-06T16:16:32.123Z,17.20
2018-12-06T16:21:37.848Z,18.93
2018-12-06T16:33:21.951Z,16.53
2018-12-06T16:38:26.868Z,19.00
2018-12-06T16:43:31.841Z,23.43
2018-12-06T16:48:37.638Z,25.17
2018-12-06T16:53:41.824Z,24.83
2018-12-06T16:58:47.260Z,23.43
2018-12-06T17:03:53.810Z,18.90
2018-12-06T17:08:58.182Z,22.10
2018-12-06T17:14:03.306Z,24.33
2018-12-06T17:19:08.121Z,19.70
2018-12-06T17:24:13.460Z,19.62
2018-12-06T17:29:18.120Z,19.87
2018-12-06T17:34:22.961Z,20.65
2018-12-06T17:39:27.584Z,21.13
2018-12-06T17:44:32.147Z,16.93
2018-12-06T17:49:37.389Z,22.60
2018-12-06T17:54:41.716Z,20.77
2018-12-06T17:59:45.936Z,21.43
2018-12-06T18:04:51.131Z,18.53
2018-12-06T18:09:55.753Z,20.20
2018-12-06T18:15:00.339Z,19.83
2018-12-06T18:20:07.372Z,19.97
2018-12-06T18:25:11.604Z,19.07
2018-12-06T18:30:16.044Z,20.75
2018-12-06T18:41:17.999Z,18.20
2018-12-06T18:46:22.922Z,19.77
2018-12-06T18:51:27.509Z,16.83
2018-12-06T18:56:32.451Z,22.13
2018-12-06T19:01:36.675Z,21.30
2018-12-06T19:06:45.485Z,20.93
2018-12-06T19:11:49.872Z,20.67
2018-12-06T19:16:54.723Z,26.40
2018-12-06T19:21:59.720Z,18.53
2018-12-06T19:27:05.582Z,22.27
2018-12-06T19:32:09.979Z,20.80
2018-12-06T19:37:36.095Z,23.47
2018-12-06T19:42:40.544Z,18.00
2018-12-06T19:47:45.128Z,19.93
2018-12-06T19:52:49.911Z,20.93
2018-12-06T19:57:54.221Z,20.73
2018-12-06T20:03:00.173Z,21.10
2018-12-06T20:08:10.293Z,17.73
2018-12-06T20:13:15.173Z,19.77
2018-12-06T20:18:20.187Z,19.80
2018-12-06T20:23:24.944Z,20.73
2018-12-06T20:28:29.518Z,22.23
2018-12-06T20:33:34.633Z,23.33
2018-12-06T20:57:10.850Z,26.10
2018-12-06T21:02:15.571Z,24.67
2018-12-06T21:07:19.740Z,26.33
2018-12-06T21:12:23.906Z,28.03
2018-12-06T21:17:28.827Z,29.13
2018-12-06T21:22:32.960Z,25.37
2018-12-06T21:27:37.667Z,25.77
2018-12-06T21:32:42.239Z,24.83
2018-12-06T21:37:46.875Z,22.60
2018-12-06T21:42:51.450Z,23.23
2018-12-06T21:47:55.604Z,24.00
2018-12-06T22:23:41.291Z,24.73
2018-12-06T22:28:45.970Z,26.73
2018-12-06T22:33:50.517Z,30.43
2018-12-06T22:38:54.883Z,25.63
2018-12-06T22:43:59.986Z,28.93
2018-12-06T22:49:05.520Z,24.12
2018-12-06T22:54:10.106Z,26.57
2018-12-06T22:59:14.189Z,20.00
2018-12-06T23:04:19.399Z,22.17
2018-12-06T23:09:24.167Z,23.17
2018-12-06T23:14:29.394Z,21.03
2018-12-06T23:19:36.355Z,22.30
2018-12-06T23:24:40.765Z,21.77
2018-12-06T23:29:45.219Z,22.33
2018-12-06T23:34:49.921Z,20.93
2018-12-06T23:39:54.410Z,21.73
2018-12-06T23:44:59.401Z,21.00
2018-12-06T23:50:05.688Z,19.12
2018-12-06T23:55:10.645Z,20.27
